sensor_id;sensor_type;location;lat;lon;timestamp;P1;durP1;ratioP1;P2;durP2;ratioP2
10557;SDS011;5327;47.238;-2.304;2022-11-12T00:00:00;16.73;;;12.30;;
10557;SDS011;5327;47.238;-2.304;2022-11-12T00:02:27;19.77;;;13.27;;
10557;SDS011;5327;47.238;-2.304;2022-11-12T00:04:52;15.97;;;11.47;;
10557;SDS011;5327;47.238;-2.304;2022-11-12T00:07:18;19.80;;;13.40;;
10557;SDS011;5327;47.238;-2.304;2022-11-12T00:09:44;19.67;;;13.23;;
10557;SDS011;5327;47.238;-2.304;2022-11-12T00:12:09;15.90;;;12.60;;
10557;SDS011;5327;47.238;-2.304;2022-11-12T00:14:35;17.10;;;13.03;;
10557;SDS011;5327;47.238;-2.304;2022-11-12T00:17:01;20.13;;;11.57;;
10557;SDS011;5327;47.238;-2.304;2022-11-12T00:19:26;20.80;;;11.67;;
10557;SDS011;5327;47.238;-2.304;2022-11-12T00:21:52;22.33;;;13.87;;
10557;SDS011;5327;47.238;-2.304;2022-11-12T00:24:17;16.83;;;11.23;;
10557;SDS011;5327;47.238;-2.304;2022-11-12T00:26:43;23.20;;;12.63;;
10557;SDS011;5327;47.238;-2.304;2022-11-12T00:29:09;21.13;;;11.77;;
10557;SDS011;5327;47.238;-2.304;2022-11-12T00:31:34;19.33;;;11.33;;
10557;SDS011;5327;47.238;-2.304;2022-11-12T00:34:01;19.10;;;13.43;;
10557;SDS011;5327;47.238;-2.304;2022-11-12T00:36:26;23.57;;;13.00;;
10557;SDS011;5327;47.238;-2.304;2022-11-12T00:38:52;16.20;;;11.40;;
10557;SDS011;5327;47.238;-2.304;2022-11-12T00:41:18;18.80;;;11.43;;
10557;SDS011;5327;47.238;-2.304;2022-11-12T00:43:43;16.70;;;10.47;;
10557;SDS011;5327;47.238;-2.304;2022-11-12T00:46:09;24.63;;;10.97;;
10557;SDS011;5327;47.238;-2.304;2022-11-12T00:48:35;18.90;;;10.73;;
10557;SDS011;5327;47.238;-2.304;2022-11-12T00:51:02;20.30;;;10.43;;
10557;SDS011;5327;47.238;-2.304;2022-11-12T00:53:29;16.70;;;10.67;;
10557;SDS011;5327;47.238;-2.304;2022-11-12T00:55:59;21.53;;;10.13;;
10557;SDS011;5327;47.238;-2.304;2022-11-12T00:58:29;19.00;;;12.83;;
10557;SDS011;5327;47.238;-2.304;2022-11-12T01:00:56;17.97;;;10.80;;
10557;SDS011;5327;47.238;-2.304;2022-11-12T01:03:22;20.50;;;12.83;;
10557;SDS011;5327;47.238;-2.304;2022-11-12T01:05:48;16.33;;;10.53;;
10557;SDS011;5327;47.238;-2.304;2022-11-12T01:08:13;24.27;;;11.10;;
10557;SDS011;5327;47.238;-2.304;2022-11-12T01:10:39;33.53;;;12.43;;
10557;SDS011;5327;47.238;-2.304;2022-11-12T01:13:05;20.33;;;10.60;;
10557;SDS011;5327;47.238;-2.304;2022-11-12T01:15:30;18.30;;;10.20;;
10557;SDS011;5327;47.238;-2.304;2022-11-12T01:17:56;20.47;;;11.07;;
10557;SDS011;5327;47.238;-2.304;2022-11-12T01:20:22;23.43;;;10.70;;
10557;SDS011;5327;47.238;-2.304;2022-11-12T01:22:47;20.47;;;11.47;;
10557;SDS011;5327;47.238;-2.304;2022-11-12T01:25:13;22.07;;;11.43;;
10557;SDS011;5327;47.238;-2.304;2022-11-12T01:27:39;18.13;;;10.10;;
10557;SDS011;5327;47.238;-2.304;2022-11-12T01:30:04;17.30;;;10.50;;
10557;SDS011;5327;47.238;-2.304;2022-11-12T01:32:33;23.40;;;10.80;;
10557;SDS011;5327;47.238;-2.304;2022-11-12T01:35:00;20.13;;;11.50;;
10557;SDS011;5327;47.238;-2.304;2022-11-12T01:37:26;17.30;;;9.90;;
10557;SDS011;5327;47.238;-2.304;2022-11-12T01:39:52;19.40;;;10.60;;
10557;SDS011;5327;47.238;-2.304;2022-11-12T01:42:18;21.53;;;11.53;;
10557;SDS011;5327;47.238;-2.304;2022-11-12T01:44:43;14.93;;;9.67;;
10557;SDS011;5327;47.238;-2.304;2022-11-12T01:47:18;25.97;;;12.10;;
10557;SDS011;5327;47.238;-2.304;2022-11-12T01:52:36;21.23;;;10.70;;
10557;SDS011;5327;47.238;-2.304;2022-11-12T01:55:10;16.53;;;9.97;;
10557;SDS011;5327;47.238;-2.304;2022-11-12T01:57:47;21.90;;;10.60;;
10557;SDS011;5327;47.238;-2.304;2022-11-12T02:00:17;17.13;;;10.33;;
10557;SDS011;5327;47.238;-2.304;2022-11-12T02:02:44;17.27;;;9.70;;
10557;SDS011;5327;47.238;-2.304;2022-11-12T02:05:13;14.90;;;10.20;;
10557;SDS011;5327;47.238;-2.304;2022-11-12T02:07:40;18.57;;;8.50;;
10557;SDS011;5327;47.238;-2.304;2022-11-12T02:10:09;14.47;;;8.40;;
10557;SDS011;5327;47.238;-2.304;2022-11-12T02:12:34;17.07;;;9.80;;
10557;SDS011;5327;47.238;-2.304;2022-11-12T02:15:19;18.40;;;9.43;;
10557;SDS011;5327;47.238;-2.304;2022-11-12T02:17:44;17.63;;;9.40;;
10557;SDS011;5327;47.238;-2.304;2022-11-12T02:20:11;19.50;;;10.37;;
10557;SDS011;5327;47.238;-2.304;2022-11-12T02:22:38;15.20;;;10.23;;
10557;SDS011;5327;47.238;-2.304;2022-11-12T02:25:04;16.60;;;8.43;;
10557;SDS011;5327;47.238;-2.304;2022-11-12T02:27:30;18.17;;;9.13;;
10557;SDS011;5327;47.238;-2.304;2022-11-12T02:29:56;15.80;;;9.33;;
10557;SDS011;5327;47.238;-2.304;2022-11-12T02:32:22;12.43;;;7.90;;
10557;SDS011;5327;47.238;-2.304;2022-11-12T02:34:47;18.23;;;9.37;;
10557;SDS011;5327;47.238;-2.304;2022-11-12T02:37:13;17.43;;;9.97;;
10557;SDS011;5327;47.238;-2.304;2022-11-12T02:39:39;13.57;;;8.30;;
10557;SDS011;5327;47.238;-2.304;2022-11-12T02:42:04;19.60;;;10.90;;
10557;SDS011;5327;47.238;-2.304;2022-11-12T02:44:30;18.47;;;8.17;;
10557;SDS011;5327;47.238;-2.304;2022-11-12T02:46:56;17.80;;;9.40;;
10557;SDS011;5327;47.238;-2.304;2022-11-12T02:49:21;17.10;;;8.43;;
10557;SDS011;5327;47.238;-2.304;2022-11-12T02:51:47;22.17;;;9.47;;
10557;SDS011;5327;47.238;-2.304;2022-11-12T02:54:13;15.07;;;8.60;;
10557;SDS011;5327;47.238;-2.304;2022-11-12T02:56:38;18.70;;;10.20;;
10557;SDS011;5327;47.238;-2.304;2022-11-12T02:59:04;26.70;;;24.20;;
10557;SDS011;5327;47.238;-2.304;2022-11-12T03:01:30;195.27;;;175.03;;
10557;SDS011;5327;47.238;-2.304;2022-11-12T03:03:55;142.17;;;129.60;;
10557;SDS011;5327;47.238;-2.304;2022-11-12T03:06:21;161.37;;;147.17;;
10557;SDS011;5327;47.238;-2.304;2022-11-12T03:08:46;95.40;;;87.40;;
10557;SDS011;5327;47.238;-2.304;2022-11-12T03:11:13;158.83;;;145.13;;
10557;SDS011;5327;47.238;-2.304;2022-11-12T03:13:40;170.57;;;156.70;;
10557;SDS011;5327;47.238;-2.304;2022-11-12T03:16:06;173.37;;;157.30;;
10557;SDS011;5327;47.238;-2.304;2022-11-12T03:18:32;174.73;;;158.23;;
10557;SDS011;5327;47.238;-2.304;2022-11-12T03:20:57;168.43;;;154.00;;
10557;SDS011;5327;47.238;-2.304;2022-11-12T03:23:24;153.33;;;140.40;;
10557;SDS011;5327;47.238;-2.304;2022-11-12T03:25:50;110.10;;;101.87;;
10557;SDS011;5327;47.238;-2.304;2022-11-12T03:28:16;105.83;;;97.50;;
10557;SDS011;5327;47.238;-2.304;2022-11-12T03:30:42;123.43;;;114.00;;
10557;SDS011;5327;47.238;-2.304;2022-11-12T03:33:09;95.90;;;88.87;;
10557;SDS011;5327;47.238;-2.304;2022-11-12T03:35:37;128.20;;;118.33;;
10557;SDS011;5327;47.238;-2.304;2022-11-12T03:38:03;114.37;;;105.67;;
10557;SDS011;5327;47.238;-2.304;2022-11-12T03:40:30;89.90;;;82.23;;
10557;SDS011;5327;47.238;-2.304;2022-11-12T03:42:56;39.40;;;36.13;;
10557;SDS011;5327;47.238;-2.304;2022-11-12T03:45:23;96.33;;;89.43;;
10557;SDS011;5327;47.238;-2.304;2022-11-12T03:47:51;94.23;;;86.73;;
10557;SDS011;5327;47.238;-2.304;2022-11-12T03:50:19;87.23;;;80.53;;
10557;SDS011;5327;47.238;-2.304;2022-11-12T03:52:47;91.13;;;83.97;;
10557;SDS011;5327;47.238;-2.304;2022-11-12T03:55:15;99.67;;;92.47;;
10557;SDS011;5327;47.238;-2.304;2022-11-12T03:57:42;100.43;;;92.57;;
10557;SDS011;5327;47.238;-2.304;2022-11-12T04:00:08;109.80;;;101.80;;
10557;SDS011;5327;47.238;-2.304;2022-11-12T04:02:35;111.80;;;102.47;;
10557;SDS011;5327;47.238;-2.304;2022-11-12T04:05:01;99.60;;;91.93;;
10557;SDS011;5327;47.238;-2.304;2022-11-12T04:07:48;102.20;;;94.17;;
10557;SDS011;5327;47.238;-2.304;2022-11-12T04:10:32;232.90;;;207.67;;
10557;SDS011;5327;47.238;-2.304;2022-11-12T04:12:59;67.83;;;62.63;;
10557;SDS011;5327;47.238;-2.304;2022-11-12T04:15:43;64.13;;;59.80;;
10557;SDS011;5327;47.238;-2.304;2022-11-12T04:18:08;96.20;;;89.03;;
10557;SDS011;5327;47.238;-2.304;2022-11-12T04:20:53;73.03;;;67.83;;
10557;SDS011;5327;47.238;-2.304;2022-11-12T04:23:44;80.23;;;74.53;;
10557;SDS011;5327;47.238;-2.304;2022-11-12T04:26:10;67.87;;;62.77;;
10557;SDS011;5327;47.238;-2.304;2022-11-12T04:28:47;36.37;;;32.77;;
10557;SDS011;5327;47.238;-2.304;2022-11-12T04:31:31;88.17;;;81.07;;
10557;SDS011;5327;47.238;-2.304;2022-11-12T04:33:57;93.83;;;87.03;;
10557;SDS011;5327;47.238;-2.304;2022-11-12T04:36:43;56.77;;;52.17;;
10557;SDS011;5327;47.238;-2.304;2022-11-12T04:39:08;27.20;;;11.17;;
10557;SDS011;5327;47.238;-2.304;2022-11-12T04:41:34;64.73;;;59.43;;
10557;SDS011;5327;47.238;-2.304;2022-11-12T04:44:18;225.90;;;203.80;;
10557;SDS011;5327;47.238;-2.304;2022-11-12T04:47:02;71.63;;;65.77;;
10557;SDS011;5327;47.238;-2.304;2022-11-12T04:49:28;71.30;;;66.03;;
10557;SDS011;5327;47.238;-2.304;2022-11-12T04:51:54;94.70;;;88.03;;
10557;SDS011;5327;47.238;-2.304;2022-11-12T04:54:32;67.53;;;62.53;;
10557;SDS011;5327;47.238;-2.304;2022-11-12T04:56:58;51.17;;;47.10;;
10557;SDS011;5327;47.238;-2.304;2022-11-12T04:59:24;79.10;;;73.50;;
10557;SDS011;5327;47.238;-2.304;2022-11-12T05:01:50;76.97;;;71.93;;
10557;SDS011;5327;47.238;-2.304;2022-11-12T05:04:16;51.07;;;47.53;;
10557;SDS011;5327;47.238;-2.304;2022-11-12T05:06:41;64.00;;;59.03;;
10557;SDS011;5327;47.238;-2.304;2022-11-12T05:09:16;73.87;;;67.87;;
10557;SDS011;5327;47.238;-2.304;2022-11-12T05:11:43;94.23;;;86.43;;
10557;SDS011;5327;47.238;-2.304;2022-11-12T05:14:09;81.67;;;74.63;;
10557;SDS011;5327;47.238;-2.304;2022-11-12T05:16:34;107.37;;;98.27;;
10557;SDS011;5327;47.238;-2.304;2022-11-12T05:19:01;106.63;;;98.10;;
10557;SDS011;5327;47.238;-2.304;2022-11-12T05:21:27;143.37;;;131.57;;
10557;SDS011;5327;47.238;-2.304;2022-11-12T05:24:11;108.43;;;99.40;;
10557;SDS011;5327;47.238;-2.304;2022-11-12T05:26:37;100.03;;;92.83;;
10557;SDS011;5327;47.238;-2.304;2022-11-12T05:29:02;121.07;;;110.87;;
10557;SDS011;5327;47.238;-2.304;2022-11-12T05:31:28;84.53;;;78.17;;
10557;SDS011;5327;47.238;-2.304;2022-11-12T05:33:54;103.93;;;95.63;;
10557;SDS011;5327;47.238;-2.304;2022-11-12T05:36:20;101.43;;;93.80;;
10557;SDS011;5327;47.238;-2.304;2022-11-12T05:38:46;107.53;;;100.20;;
10557;SDS011;5327;47.238;-2.304;2022-11-12T05:41:11;19.90;;;17.77;;
10557;SDS011;5327;47.238;-2.304;2022-11-12T05:43:37;24.30;;;10.50;;
10557;SDS011;5327;47.238;-2.304;2022-11-12T05:46:03;18.00;;;8.07;;
10557;SDS011;5327;47.238;-2.304;2022-11-12T05:48:29;12.27;;;8.20;;
10557;SDS011;5327;47.238;-2.304;2022-11-12T05:50:55;14.00;;;12.47;;
10557;SDS011;5327;47.238;-2.304;2022-11-12T05:53:20;47.03;;;43.97;;
10557;SDS011;5327;47.238;-2.304;2022-11-12T05:55:46;47.40;;;44.03;;
10557;SDS011;5327;47.238;-2.304;2022-11-12T05:58:12;67.33;;;62.90;;
10557;SDS011;5327;47.238;-2.304;2022-11-12T06:00:37;69.60;;;65.00;;
10557;SDS011;5327;47.238;-2.304;2022-11-12T06:03:03;58.77;;;54.33;;
10557;SDS011;5327;47.238;-2.304;2022-11-12T06:05:30;86.93;;;80.00;;
10557;SDS011;5327;47.238;-2.304;2022-11-12T06:07:56;57.80;;;54.23;;
10557;SDS011;5327;47.238;-2.304;2022-11-12T06:10:23;86.97;;;80.70;;
10557;SDS011;5327;47.238;-2.304;2022-11-12T06:12:48;48.87;;;45.60;;
10557;SDS011;5327;47.238;-2.304;2022-11-12T06:15:14;13.30;;;9.93;;
10557;SDS011;5327;47.238;-2.304;2022-11-12T06:17:40;18.83;;;10.30;;
10557;SDS011;5327;47.238;-2.304;2022-11-12T06:20:06;13.60;;;12.33;;
10557;SDS011;5327;47.238;-2.304;2022-11-12T06:22:32;11.43;;;8.83;;
10557;SDS011;5327;47.238;-2.304;2022-11-12T06:24:58;19.30;;;12.40;;
10557;SDS011;5327;47.238;-2.304;2022-11-12T06:27:24;20.17;;;18.63;;
10557;SDS011;5327;47.238;-2.304;2022-11-12T06:29:50;41.10;;;37.90;;
10557;SDS011;5327;47.238;-2.304;2022-11-12T06:32:15;78.07;;;72.83;;
10557;SDS011;5327;47.238;-2.304;2022-11-12T06:34:41;48.37;;;45.03;;
10557;SDS011;5327;47.238;-2.304;2022-11-12T06:37:07;67.03;;;62.30;;
10557;SDS011;5327;47.238;-2.304;2022-11-12T06:39:32;74.93;;;69.40;;
10557;SDS011;5327;47.238;-2.304;2022-11-12T06:41:58;50.40;;;47.17;;
10557;SDS011;5327;47.238;-2.304;2022-11-12T06:44:23;37.33;;;34.30;;
10557;SDS011;5327;47.238;-2.304;2022-11-12T06:46:49;29.90;;;26.40;;
10557;SDS011;5327;47.238;-2.304;2022-11-12T06:49:15;204.93;;;186.83;;
10557;SDS011;5327;47.238;-2.304;2022-11-12T06:51:40;190.10;;;176.27;;
10557;SDS011;5327;47.238;-2.304;2022-11-12T06:54:06;142.27;;;128.07;;
10557;SDS011;5327;47.238;-2.304;2022-11-12T06:56:32;231.97;;;201.83;;
10557;SDS011;5327;47.238;-2.304;2022-11-12T06:58:57;248.67;;;223.30;;
10557;SDS011;5327;47.238;-2.304;2022-11-12T07:01:23;266.83;;;222.73;;
10557;SDS011;5327;47.238;-2.304;2022-11-12T07:03:52;82.13;;;75.40;;
10557;SDS011;5327;47.238;-2.304;2022-11-12T07:06:18;97.30;;;90.60;;
10557;SDS011;5327;47.238;-2.304;2022-11-12T07:08:48;90.97;;;84.23;;
10557;SDS011;5327;47.238;-2.304;2022-11-12T07:11:15;77.00;;;71.33;;
10557;SDS011;5327;47.238;-2.304;2022-11-12T07:13:41;112.93;;;104.43;;
10557;SDS011;5327;47.238;-2.304;2022-11-12T07:16:11;119.97;;;110.63;;
10557;SDS011;5327;47.238;-2.304;2022-11-12T07:18:38;102.43;;;94.53;;
10557;SDS011;5327;47.238;-2.304;2022-11-12T07:21:08;102.90;;;95.40;;
10557;SDS011;5327;47.238;-2.304;2022-11-12T07:23:36;95.73;;;88.83;;
10557;SDS011;5327;47.238;-2.304;2022-11-12T07:26:23;86.90;;;80.90;;
10557;SDS011;5327;47.238;-2.304;2022-11-12T07:28:49;74.70;;;69.20;;
10557;SDS011;5327;47.238;-2.304;2022-11-12T07:31:16;85.93;;;79.93;;
10557;SDS011;5327;47.238;-2.304;2022-11-12T07:33:43;83.57;;;78.40;;
10557;SDS011;5327;47.238;-2.304;2022-11-12T07:36:10;35.57;;;32.90;;
10557;SDS011;5327;47.238;-2.304;2022-11-12T07:38:38;63.10;;;58.23;;
10557;SDS011;5327;47.238;-2.304;2022-11-12T07:43:42;49.87;;;45.67;;
10557;SDS011;5327;47.238;-2.304;2022-11-12T07:46:13;72.73;;;66.87;;
10557;SDS011;5327;47.238;-2.304;2022-11-12T07:48:40;26.03;;;17.23;;
10557;SDS011;5327;47.238;-2.304;2022-11-12T07:51:07;23.73;;;14.60;;
10557;SDS011;5327;47.238;-2.304;2022-11-12T07:53:40;30.90;;;17.53;;
10557;SDS011;5327;47.238;-2.304;2022-11-12T07:56:08;22.23;;;13.57;;
10557;SDS011;5327;47.238;-2.304;2022-11-12T07:58:35;21.27;;;14.10;;
10557;SDS011;5327;47.238;-2.304;2022-11-12T08:01:23;25.03;;;12.60;;
10557;SDS011;5327;47.238;-2.304;2022-11-12T08:03:52;27.70;;;13.03;;
10557;SDS011;5327;47.238;-2.304;2022-11-12T08:06:18;24.97;;;12.30;;
10557;SDS011;5327;47.238;-2.304;2022-11-12T08:08:44;45.93;;;19.23;;
10557;SDS011;5327;47.238;-2.304;2022-11-12T08:11:09;15.90;;;8.23;;
10557;SDS011;5327;47.238;-2.304;2022-11-12T08:13:35;15.90;;;10.73;;
10557;SDS011;5327;47.238;-2.304;2022-11-12T08:16:01;21.33;;;12.33;;
10557;SDS011;5327;47.238;-2.304;2022-11-12T08:18:26;18.23;;;9.00;;
10557;SDS011;5327;47.238;-2.304;2022-11-12T08:20:59;17.67;;;9.93;;
10557;SDS011;5327;47.238;-2.304;2022-11-12T08:23:26;21.43;;;10.50;;
10557;SDS011;5327;47.238;-2.304;2022-11-12T08:25:56;21.63;;;9.97;;
10557;SDS011;5327;47.238;-2.304;2022-11-12T08:28:26;23.93;;;9.97;;
10557;SDS011;5327;47.238;-2.304;2022-11-12T08:30:53;19.97;;;8.30;;
10557;SDS011;5327;47.238;-2.304;2022-11-12T08:33:19;20.93;;;9.13;;
10557;SDS011;5327;47.238;-2.304;2022-11-12T08:35:44;17.13;;;7.50;;
10557;SDS011;5327;47.238;-2.304;2022-11-12T08:38:10;23.20;;;10.67;;
10557;SDS011;5327;47.238;-2.304;2022-11-12T08:40:38;23.73;;;9.37;;
10557;SDS011;5327;47.238;-2.304;2022-11-12T08:43:05;18.73;;;9.03;;
10557;SDS011;5327;47.238;-2.304;2022-11-12T08:45:33;19.10;;;8.70;;
10557;SDS011;5327;47.238;-2.304;2022-11-12T08:48:00;24.90;;;8.87;;
10557;SDS011;5327;47.238;-2.304;2022-11-12T08:50:28;21.37;;;9.50;;
10557;SDS011;5327;47.238;-2.304;2022-11-12T08:53:00;14.10;;;7.20;;
10557;SDS011;5327;47.238;-2.304;2022-11-12T08:55:30;17.47;;;8.07;;
10557;SDS011;5327;47.238;-2.304;2022-11-12T08:57:57;12.73;;;7.50;;
10557;SDS011;5327;47.238;-2.304;2022-11-12T09:00:33;10.70;;;6.30;;
10557;SDS011;5327;47.238;-2.304;2022-11-12T09:03:01;99.07;;;92.23;;
10557;SDS011;5327;47.238;-2.304;2022-11-12T09:05:28;13.90;;;7.50;;
10557;SDS011;5327;47.238;-2.304;2022-11-12T09:08:04;11.83;;;7.17;;
10557;SDS011;5327;47.238;-2.304;2022-11-12T09:10:34;13.70;;;6.60;;
10557;SDS011;5327;47.238;-2.304;2022-11-12T09:13:01;13.90;;;6.87;;
10557;SDS011;5327;47.238;-2.304;2022-11-12T09:15:27;16.57;;;6.60;;
10557;SDS011;5327;47.238;-2.304;2022-11-12T09:18:00;11.37;;;5.80;;
10557;SDS011;5327;47.238;-2.304;2022-11-12T09:20:28;13.83;;;6.17;;
10557;SDS011;5327;47.238;-2.304;2022-11-12T09:23:00;22.80;;;8.63;;
10557;SDS011;5327;47.238;-2.304;2022-11-12T09:25:27;20.77;;;9.67;;
10557;SDS011;5327;47.238;-2.304;2022-11-12T09:27:53;25.13;;;9.03;;
10557;SDS011;5327;47.238;-2.304;2022-11-12T09:30:20;20.93;;;8.90;;
10557;SDS011;5327;47.238;-2.304;2022-11-12T09:32:45;27.50;;;9.10;;
10557;SDS011;5327;47.238;-2.304;2022-11-12T09:35:11;17.20;;;7.40;;
10557;SDS011;5327;47.238;-2.304;2022-11-12T09:37:37;17.10;;;8.10;;
10557;SDS011;5327;47.238;-2.304;2022-11-12T09:40:04;18.93;;;8.00;;
10557;SDS011;5327;47.238;-2.304;2022-11-12T09:42:32;22.27;;;9.07;;
10557;SDS011;5327;47.238;-2.304;2022-11-12T09:45:02;22.47;;;8.40;;
10557;SDS011;5327;47.238;-2.304;2022-11-12T09:47:30;17.03;;;7.97;;
10557;SDS011;5327;47.238;-2.304;2022-11-12T09:50:02;41.67;;;15.23;;
10557;SDS011;5327;47.238;-2.304;2022-11-12T09:52:41;22.83;;;8.30;;
10557;SDS011;5327;47.238;-2.304;2022-11-12T09:57:41;21.73;;;6.17;;
10557;SDS011;5327;47.238;-2.304;2022-11-12T10:00:14;26.00;;;11.30;;
10557;SDS011;5327;47.238;-2.304;2022-11-12T10:02:51;19.40;;;9.40;;
10557;SDS011;5327;47.238;-2.304;2022-11-12T10:08:45;21.40;;;8.17;;
10557;SDS011;5327;47.238;-2.304;2022-11-12T10:14:40;22.53;;;10.00;;
10557;SDS011;5327;47.238;-2.304;2022-11-12T10:20:05;16.50;;;7.80;;
10557;SDS011;5327;47.238;-2.304;2022-11-12T10:25:28;31.07;;;11.63;;
10557;SDS011;5327;47.238;-2.304;2022-11-12T10:27:55;21.47;;;8.20;;
10557;SDS011;5327;47.238;-2.304;2022-11-12T10:30:22;18.63;;;8.70;;
10557;SDS011;5327;47.238;-2.304;2022-11-12T10:32:48;17.37;;;8.07;;
10557;SDS011;5327;47.238;-2.304;2022-11-12T10:35:17;20.17;;;7.43;;
10557;SDS011;5327;47.238;-2.304;2022-11-12T10:37:59;10.43;;;5.37;;
10557;SDS011;5327;47.238;-2.304;2022-11-12T10:40:35;10.73;;;5.10;;
10557;SDS011;5327;47.238;-2.304;2022-11-12T10:45:40;16.53;;;6.43;;
10557;SDS011;5327;47.238;-2.304;2022-11-12T10:48:29;18.27;;;7.30;;
10557;SDS011;5327;47.238;-2.304;2022-11-12T10:50:57;13.90;;;6.07;;
10557;SDS011;5327;47.238;-2.304;2022-11-12T10:53:31;15.73;;;6.53;;
10557;SDS011;5327;47.238;-2.304;2022-11-12T10:56:05;12.10;;;5.77;;
10557;SDS011;5327;47.238;-2.304;2022-11-12T10:59:14;13.60;;;5.73;;
10557;SDS011;5327;47.238;-2.304;2022-11-12T11:01:41;20.70;;;7.07;;
10557;SDS011;5327;47.238;-2.304;2022-11-12T11:04:41;15.50;;;5.80;;
10557;SDS011;5327;47.238;-2.304;2022-11-12T11:09:31;30.53;;;10.00;;
10557;SDS011;5327;47.238;-2.304;2022-11-12T11:11:58;16.83;;;6.50;;
10557;SDS011;5327;47.238;-2.304;2022-11-12T11:14:29;17.33;;;7.30;;
10557;SDS011;5327;47.238;-2.304;2022-11-12T11:17:01;19.10;;;6.60;;
10557;SDS011;5327;47.238;-2.304;2022-11-12T11:19:41;18.00;;;6.03;;
10557;SDS011;5327;47.238;-2.304;2022-11-12T11:22:19;15.50;;;7.77;;
10557;SDS011;5327;47.238;-2.304;2022-11-12T11:27:39;15.40;;;6.80;;
10557;SDS011;5327;47.238;-2.304;2022-11-12T11:30:12;28.30;;;8.73;;
10557;SDS011;5327;47.238;-2.304;2022-11-12T11:35:54;20.10;;;8.00;;
10557;SDS011;5327;47.238;-2.304;2022-11-12T11:41:34;14.03;;;9.30;;
10557;SDS011;5327;47.238;-2.304;2022-11-12T11:50:10;22.47;;;8.97;;
10557;SDS011;5327;47.238;-2.304;2022-11-12T11:52:52;13.57;;;8.33;;
10557;SDS011;5327;47.238;-2.304;2022-11-12T11:55:32;13.80;;;9.83;;
10557;SDS011;5327;47.238;-2.304;2022-11-12T12:01:03;12.60;;;9.50;;
10557;SDS011;5327;47.238;-2.304;2022-11-12T12:06:31;6.50;;;4.20;;
10557;SDS011;5327;47.238;-2.304;2022-11-12T12:12:42;5.80;;;5.03;;
10557;SDS011;5327;47.238;-2.304;2022-11-12T12:15:29;15.13;;;6.73;;
10557;SDS011;5327;47.238;-2.304;2022-11-12T12:20:54;10.00;;;5.87;;
10557;SDS011;5327;47.238;-2.304;2022-11-12T12:25:59;9.63;;;6.77;;
10557;SDS011;5327;47.238;-2.304;2022-11-12T12:28:40;13.63;;;7.17;;
10557;SDS011;5327;47.238;-2.304;2022-11-12T12:31:12;9.90;;;5.90;;
10557;SDS011;5327;47.238;-2.304;2022-11-12T12:33:54;11.57;;;5.80;;
10557;SDS011;5327;47.238;-2.304;2022-11-12T12:36:36;11.23;;;4.63;;
10557;SDS011;5327;47.238;-2.304;2022-11-12T12:39:16;15.53;;;5.90;;
10557;SDS011;5327;47.238;-2.304;2022-11-12T12:41:45;11.10;;;4.93;;
10557;SDS011;5327;47.238;-2.304;2022-11-12T12:44:22;11.93;;;5.40;;
10557;SDS011;5327;47.238;-2.304;2022-11-12T12:47:11;13.13;;;5.80;;
10557;SDS011;5327;47.238;-2.304;2022-11-12T12:49:41;10.80;;;5.30;;
10557;SDS011;5327;47.238;-2.304;2022-11-12T12:52:12;8.53;;;4.20;;
10557;SDS011;5327;47.238;-2.304;2022-11-12T12:57:47;14.10;;;5.13;;
10557;SDS011;5327;47.238;-2.304;2022-11-12T13:02:52;16.07;;;5.77;;
10557;SDS011;5327;47.238;-2.304;2022-11-12T13:05:26;13.83;;;4.70;;
10557;SDS011;5327;47.238;-2.304;2022-11-12T13:08:04;12.97;;;5.23;;
10557;SDS011;5327;47.238;-2.304;2022-11-12T13:15:44;8.27;;;4.47;;
10557;SDS011;5327;47.238;-2.304;2022-11-12T13:18:10;12.07;;;5.50;;
10557;SDS011;5327;47.238;-2.304;2022-11-12T13:23:43;15.10;;;5.87;;
10557;SDS011;5327;47.238;-2.304;2022-11-12T13:35:08;10.37;;;4.73;;
10557;SDS011;5327;47.238;-2.304;2022-11-12T13:37:44;16.70;;;6.30;;
10557;SDS011;5327;47.238;-2.304;2022-11-12T13:41:05;15.80;;;4.80;;
10557;SDS011;5327;47.238;-2.304;2022-11-12T13:45:54;20.07;;;6.00;;
10557;SDS011;5327;47.238;-2.304;2022-11-12T13:51:09;15.70;;;6.50;;
10557;SDS011;5327;47.238;-2.304;2022-11-12T13:53:42;14.27;;;6.43;;
10557;SDS011;5327;47.238;-2.304;2022-11-12T13:56:09;16.33;;;6.63;;
10557;SDS011;5327;47.238;-2.304;2022-11-12T13:58:35;19.10;;;6.63;;
10557;SDS011;5327;47.238;-2.304;2022-11-12T14:01:04;20.40;;;7.13;;
10557;SDS011;5327;47.238;-2.304;2022-11-12T14:03:36;16.80;;;6.77;;
10557;SDS011;5327;47.238;-2.304;2022-11-12T14:06:11;18.10;;;7.43;;
10557;SDS011;5327;47.238;-2.304;2022-11-12T14:09:04;18.50;;;7.03;;
10557;SDS011;5327;47.238;-2.304;2022-11-12T14:20:06;16.67;;;6.90;;
10557;SDS011;5327;47.238;-2.304;2022-11-12T14:22:51;17.57;;;6.90;;
10557;SDS011;5327;47.238;-2.304;2022-11-12T14:25:19;23.13;;;8.30;;
10557;SDS011;5327;47.238;-2.304;2022-11-12T14:27:50;16.63;;;6.20;;
10557;SDS011;5327;47.238;-2.304;2022-11-12T14:30:27;25.87;;;9.73;;
10557;SDS011;5327;47.238;-2.304;2022-11-12T14:33:08;18.90;;;7.40;;
10557;SDS011;5327;47.238;-2.304;2022-11-12T14:35:35;22.53;;;7.80;;
10557;SDS011;5327;47.238;-2.304;2022-11-12T14:40:35;17.13;;;7.00;;
10557;SDS011;5327;47.238;-2.304;2022-11-12T14:45:53;19.87;;;6.90;;
10557;SDS011;5327;47.238;-2.304;2022-11-12T14:48:20;18.10;;;6.20;;
10557;SDS011;5327;47.238;-2.304;2022-11-12T14:50:47;14.43;;;6.07;;
10557;SDS011;5327;47.238;-2.304;2022-11-12T14:53:40;19.77;;;7.17;;
10557;SDS011;5327;47.238;-2.304;2022-11-12T14:56:08;15.40;;;6.47;;
10557;SDS011;5327;47.238;-2.304;2022-11-12T14:58:52;17.90;;;6.37;;
10557;SDS011;5327;47.238;-2.304;2022-11-12T15:01:24;20.10;;;8.30;;
10557;SDS011;5327;47.238;-2.304;2022-11-12T15:06:37;17.07;;;7.37;;
10557;SDS011;5327;47.238;-2.304;2022-11-12T15:09:03;18.20;;;8.60;;
10557;SDS011;5327;47.238;-2.304;2022-11-12T15:11:31;19.70;;;8.50;;
10557;SDS011;5327;47.238;-2.304;2022-11-12T15:13:58;16.63;;;7.43;;
10557;SDS011;5327;47.238;-2.304;2022-11-12T15:16:32;19.80;;;7.40;;
10557;SDS011;5327;47.238;-2.304;2022-11-12T15:19:01;18.40;;;7.33;;
10557;SDS011;5327;47.238;-2.304;2022-11-12T15:21:29;26.07;;;9.13;;
10557;SDS011;5327;47.238;-2.304;2022-11-12T15:23:59;15.23;;;6.57;;
10557;SDS011;5327;47.238;-2.304;2022-11-12T15:26:51;19.83;;;8.73;;
10557;SDS011;5327;47.238;-2.304;2022-11-12T15:29:20;19.00;;;8.03;;
10557;SDS011;5327;47.238;-2.304;2022-11-12T15:31:48;23.70;;;8.03;;
10557;SDS011;5327;47.238;-2.304;2022-11-12T15:34:25;19.00;;;8.50;;
10557;SDS011;5327;47.238;-2.304;2022-11-12T15:37:03;21.87;;;7.87;;
10557;SDS011;5327;47.238;-2.304;2022-11-12T15:39:31;19.47;;;7.30;;
10557;SDS011;5327;47.238;-2.304;2022-11-12T15:42:05;23.10;;;9.20;;
10557;SDS011;5327;47.238;-2.304;2022-11-12T15:44:47;25.27;;;8.90;;
10557;SDS011;5327;47.238;-2.304;2022-11-12T15:47:20;21.43;;;8.80;;
10557;SDS011;5327;47.238;-2.304;2022-11-12T15:49:47;23.50;;;8.60;;
10557;SDS011;5327;47.238;-2.304;2022-11-12T15:52:20;24.30;;;9.33;;
10557;SDS011;5327;47.238;-2.304;2022-11-12T15:54:46;26.70;;;10.17;;
10557;SDS011;5327;47.238;-2.304;2022-11-12T15:57:16;24.10;;;8.13;;
10557;SDS011;5327;47.238;-2.304;2022-11-12T15:59:56;26.00;;;8.00;;
10557;SDS011;5327;47.238;-2.304;2022-11-12T16:02:25;16.83;;;8.20;;
10557;SDS011;5327;47.238;-2.304;2022-11-12T16:04:51;19.43;;;7.83;;
10557;SDS011;5327;47.238;-2.304;2022-11-12T16:07:17;20.07;;;8.87;;
10557;SDS011;5327;47.238;-2.304;2022-11-12T16:09:42;22.50;;;8.90;;
10557;SDS011;5327;47.238;-2.304;2022-11-12T16:12:09;22.33;;;9.60;;
10557;SDS011;5327;47.238;-2.304;2022-11-12T16:14:36;26.30;;;9.97;;
10557;SDS011;5327;47.238;-2.304;2022-11-12T16:17:02;20.83;;;8.40;;
10557;SDS011;5327;47.238;-2.304;2022-11-12T16:19:29;22.00;;;8.63;;